M I D A S
Marine Information and Data Acquisition System
Tripno 359 of the Zeeleeuw from 2002-11-18 08:06:18 to 2002-11-18 15:35:00
Back to CruiseResearch ActivitiesStationsMapUnderway DataData graphs

EquipmentUnitsComments
TimeDGPSUTC
LatitudeDGPSDM.mWGS84
LongitudeDGPSDM.mWGS84
SpeedMeteo Stationm/sRelative wind speed
DirectionMeteo StationdegRelative wind direction
TemperatureMeteo Stationdeg CelciusAir temperature
PressureMeteo StationPaAtmospheric pressure
HumidityMeteo Station%Relative humidity
Missing or incorrect values are displayed as -999
Metereological data collected by the RV Zeeleeuw from 2002-11-18 08:06:18 to 2002-11-18 15:35:00
Time Latitude Longitude Speed Direction Temperature Pressure Humidity
2002-11-18 08:07 51°14.866 2°54.295 4.2 269 7.6 101340 93
2002-11-18 08:08 51°15.038 2°54.14 4.2 266 7.6 101340 92
2002-11-18 08:09 51°15.21 2°53.983 4.6 272 7.7 101340 92
2002-11-18 08:10 51°15.389 2°53.821 4.3 269 7.7 101340 92
2002-11-18 08:11 51°15.564 2°53.657 4 277 7.8 101340 92
2002-11-18 08:12 51°15.743 2°53.491 4.7 275 7.8 101340 92
2002-11-18 08:13 51°15.918 2°53.329 4 271 7.9 101340 92
2002-11-18 08:14 51°16.089 2°53.17 4.3 262 7.9 101330 92
2002-11-18 08:15 51°16.265 2°53.009 3.8 271 8 101340 93
2002-11-18 08:16 51°16.442 2°52.849 4.4 278 8.1 101340 93
2002-11-18 08:17 51°16.632 2°52.688 4.2 268 8.1 101340 93
2002-11-18 08:18 51°16.82 2°52.552 4.3 269 8.2 101340 93
2002-11-18 08:19 51°17.011 2°52.422 3.9 275 8.3 101340 92
2002-11-18 08:20 51°17.205 2°52.299 3 276 8.3 101330 93
2002-11-18 08:21 51°17.401 2°52.186 3 273 8.4 101340 92
2002-11-18 08:22 51°17.6 2°52.071 3.3 275 8.4 101340 92
2002-11-18 08:23 51°17.79 2°51.949 3.5 273 8.5 101340 92
2002-11-18 08:24 51°17.977 2°51.81 3.6 279 8.5 101340 92
2002-11-18 08:25 51°18.171 2°51.664 3.8 279 8.6 101330 93
2002-11-18 08:26 51°18.362 2°51.516 3.9 271 8.7 101330 92
2002-11-18 08:27 51°18.553 2°51.368 3.7 262 8.7 101340 92
2002-11-18 08:28 51°18.745 2°51.214 3.3 262 8.8 101340 93
2002-11-18 08:29 51°18.932 2°51.062 4 270 8.9 101340 93
2002-11-18 08:30 51°19.119 2°50.911 4.6 267 9 101340 93
2002-11-18 08:31 51°19.314 2°50.755 4.6 261 9.1 101340 93
2002-11-18 08:32 51°19.502 2°50.606 8.5 246 9.1 101340 93
2002-11-18 08:33 51°19.696 2°50.457 8.9 248 9 101320 92
2002-11-18 08:34 51°19.896 2°50.308 9.8 247 9.1 101320 91
2002-11-18 08:35 51°20.091 2°50.162 9.2 249 9.3 101310 89
2002-11-18 08:36 51°20.294 2°50 9.1 248 9.5 101320 88
2002-11-18 08:37 51°20.489 2°49.808 10.1 250 9.7 101320 86
2002-11-18 08:38 51°20.662 2°49.572 10.2 248 9.9 101310 83
2002-11-18 08:39 51°20.827 2°49.311 9.2 243 10 101320 81
2002-11-18 08:40 51°20.997 2°49.061 9.2 245 10.3 101310 79
2002-11-18 08:41 51°21.191 2°48.879 9.9 252 10.2 101310 77
2002-11-18 08:42 51°21.398 2°48.822 8.4 250 10.2 101310 76
2002-11-18 08:43 51°21.617 2°48.775 8.2 251 10.3 101320 75
2002-11-18 08:44 51°21.84 2°48.724 9.3 244 10.3 101320 75
2002-11-18 08:45 51°22.056 2°48.676 8.8 254 10.3 101320 74
2002-11-18 08:46 51°22.269 2°48.63 8.5 251 10.4 101310 74
2002-11-18 08:47 51°22.48 2°48.578 8.3 255 10.4 101320 74
2002-11-18 08:48 51°22.689 2°48.556 8.8 253 10.4 101310 74
2002-11-18 08:49 51°22.903 2°48.531 9 259 10.4 101300 73
2002-11-18 08:50 51°23.116 2°48.505 8.2 261 10.4 101320 72
2002-11-18 08:51 51°23.331 2°48.488 9 256 10.4 101310 73
2002-11-18 08:52 51°23.545 2°48.476 8.9 256 10.4 101310 72
2002-11-18 08:53 51°23.759 2°48.473 8.5 257 10.4 101310 72
2002-11-18 08:54 51°23.975 2°48.473 8.2 257 10.4 101320 71
2002-11-18 08:55 51°24.191 2°48.474 7.4 256 10.4 101310 71
2002-11-18 08:56 51°24.409 2°48.477 7.9 265 10.4 101320 71
2002-11-18 08:57 51°24.633 2°48.481 10 254 10.4 101310 71
2002-11-18 08:58 51°24.851 2°48.482 9.7 252 10.4 101310 70
2002-11-18 08:59 51°25.068 2°48.486 9.1 251 10.5 101310 70
2002-11-18 09:00 51°25.286 2°48.488 9.3 256 10.5 101310 69
2002-11-18 09:01 51°25.504 2°48.493 8.2 252 10.5 101310 69
2002-11-18 09:02 51°25.687 2°48.5 7.5 260 10.5 101320 70
2002-11-18 09:03 51°25.813 2°48.555 5.5 272 10.6 101320 68
2002-11-18 09:04 51°25.928 2°48.626 5.7 268 10.6 101330 68
2002-11-18 09:05 51°26.02 2°48.651 3.9 272 10.6 101330 68
2002-11-18 09:06 51°26.061 2°48.618 3.6 266 10.6 101330 68
2002-11-18 09:07 51°26.08 2°48.581 3.2 263 10.6 101330 68
2002-11-18 09:08 51°26.086 2°48.545 3.5 240 10.6 101330 69
2002-11-18 09:09 51°26.084 2°48.515 4 237 10.6 101330 68
2002-11-18 09:10 51°26.078 2°48.492 3.1 229 10.5 101340 67
2002-11-18 09:11 51°26.069 2°48.473 3.1 223 10.6 101330 67
2002-11-18 09:12 51°26.059 2°48.459 3.2 226 10.6 101340 68
2002-11-18 09:13 51°26.049 2°48.449 2.9 221 10.6 101340 68
2002-11-18 09:14 51°26.038 2°48.445 2.3 213 10.6 101330 68
2002-11-18 09:15 51°26.028 2°48.444 2.9 195 10.6 101340 69
2002-11-18 09:16 51°26.017 2°48.448 2.7 178 10.6 101340 68
2002-11-18 09:17 51°26.007 2°48.453 3 161 10.6 101350 69
2002-11-18 09:18 51°26.003 2°48.465 3.1 165 10.6 101350 70
2002-11-18 09:19 51°25.997 2°48.471 3 135 10.6 101350 71
2002-11-18 09:20 51°25.986 2°48.473 2.4 115 10.6 101350 69
2002-11-18 09:21 51°25.967 2°48.482 2.1 101 10.6 101360 69
2002-11-18 09:22 51°25.945 2°48.51 1.8 47 10.6 101360 69
2002-11-18 09:23 51°25.932 2°48.542 2 29 10.6 101360 69
2002-11-18 09:24 51°25.927 2°48.571 2.1 11 10.6 101360 68
2002-11-18 09:25 51°25.927 2°48.598 1 348 10.6 101360 68
2002-11-18 09:26 51°25.935 2°48.621 2.2 294 10.6 101360 69
2002-11-18 09:27 51°25.969 2°48.615 3.8 266 10.6 101360 70
2002-11-18 09:28 51°25.996 2°48.587 3.1 286 10.6 101360 70
2002-11-18 09:29 51°26.016 2°48.567 3.1 272 10.6 101360 71
2002-11-18 09:30 51°26.03 2°48.552 2.6 264 10.7 101360 72
2002-11-18 09:31 51°26.043 2°48.544 3.6 293 10.7 101360 72
2002-11-18 09:32 51°26.052 2°48.538 3.3 272 10.7 101360 73
2002-11-18 09:33 51°26.058 2°48.534 1.6 277 10.6 101360 72
2002-11-18 09:34 51°26.062 2°48.532 2.6 269 10.7 101360 73
2002-11-18 09:35 51°26.064 2°48.533 2.4 273 10.6 101360 72
2002-11-18 09:36 51°26.067 2°48.534 2.5 256 10.6 101360 72
2002-11-18 09:37 51°26.071 2°48.501 2.9 230 10.6 101360 72
2002-11-18 09:38 51°26.067 2°48.476 2 244 10.6 101360 73
2002-11-18 09:39 51°26.061 2°48.457 1.7 217 10.5 101360 72
2002-11-18 09:40 51°26.055 2°48.446 1.9 194 10.5 101360 73
2002-11-18 09:41 51°26.05 2°48.439 1.8 198 10.5 101360 73
2002-11-18 09:42 51°26.045 2°48.435 1.7 211 10.4 101360 73
2002-11-18 09:43 51°26.042 2°48.436 2.5 213 10.5 101360 73
2002-11-18 09:44 51°26.039 2°48.442 2.1 235 10.5 101360 73
2002-11-18 09:45 51°26.037 2°48.451 2.3 225 10.4 101360 73
2002-11-18 09:46 51°26.035 2°48.465 2.2 240 10.4 101360 73
2002-11-18 09:47 51°26.031 2°48.481 1.9 294 10.4 101350 73
2002-11-18 09:48 51°26.028 2°48.498 0.7 317 10.4 101360 73
2002-11-18 09:49 51°26.026 2°48.515 1.2 299 10.4 101360 73
2002-11-18 09:50 51°26.029 2°48.53 1.2 257 10.4 101360 73
2002-11-18 09:51 51°26.034 2°48.538 1.1 228 10.4 101360 73
2002-11-18 09:52 51°26.043 2°48.537 1.3 247 10.5 101360 73
2002-11-18 09:53 51°26.046 2°48.533 1.3 218 10.5 101360 73
2002-11-18 09:54 51°26.046 2°48.529 1.4 200 10.5 101360 73
2002-11-18 09:55 51°26.042 2°48.525 1.9 169 10.5 101360 73
2002-11-18 09:56 51°26.034 2°48.527 2.7 173 10.5 101350 73
2002-11-18 09:57 51°26.02 2°48.534 2.6 158 10.4 101360 73
2002-11-18 09:58 51°26.006 2°48.547 2.5 140 10.4 101360 74
2002-11-18 09:59 51°25.99 2°48.569 1.8 124 10.5 101360 74
2002-11-18 10:00 51°25.968 2°48.591 2.8 165 10.4 101360 73
2002-11-18 10:01 51°25.937 2°48.554 3.8 211 10.4 101360 73
2002-11-18 10:02 51°25.957 2°48.491 3.9 243 10.4 101360 73
2002-11-18 10:03 51°26.017 2°48.472 3.3 262 10.4 101350 73
2002-11-18 10:04 51°26.048 2°48.493 2.9 299 10.5 101360 73
2002-11-18 10:05 51°26.061 2°48.525 0.6 319 10.6 101360 73
2002-11-18 10:06 51°26.07 2°48.557 1.8 349 10.6 101360 73
2002-11-18 10:07 51°26.075 2°48.586 1.3 345 10.6 101370 72
2002-11-18 10:08 51°26.077 2°48.611 1.9 8 10.6 101370 72
2002-11-18 10:09 51°26.079 2°48.63 1.7 31 10.6 101370 71
2002-11-18 10:10 51°26.081 2°48.644 1.7 20 10.6 101370 72
2002-11-18 10:11 51°26.083 2°48.662 1.5 40 10.6 101370 72
2002-11-18 10:12 51°26.063 2°48.716 1.4 134 10.6 101360 72
2002-11-18 10:13 51°26.02 2°48.711 2.6 211 10.5 101370 71
2002-11-18 10:14 51°26.015 2°48.654 2.6 226 10.6 101370 73
2002-11-18 10:15 51°26.024 2°48.627 2.1 254 10.5 101360 72
2002-11-18 10:16 51°26.038 2°48.619 2.4 224 10.6 101370 73
2002-11-18 10:17 51°26.046 2°48.612 1.2 203 10.5 101360 72
2002-11-18 10:18 51°26.046 2°48.609 1.5 165 10.5 101370 72
2002-11-18 10:19 51°26.04 2°48.612 1.7 146 10.5 101350 72
2002-11-18 10:20 51°26.031 2°48.617 1.5 145 10.5 101360 72
2002-11-18 10:21 51°26.022 2°48.622 1.4 173 10.5 101360 73
2002-11-18 10:22 51°26.013 2°48.621 1.2 175 10.5 101360 73
2002-11-18 10:23 51°26.011 2°48.616 1.7 211 10.5 101360 73
2002-11-18 10:24 51°26.011 2°48.577 2.5 225 10.4 101350 72
2002-11-18 10:25 51°26.021 2°48.536 1.8 209 10.4 101350 72
2002-11-18 10:26 51°26.03 2°48.515 1.9 208 10.4 101350 72
2002-11-18 10:27 51°26.033 2°48.501 1.4 182 10.4 101350 72
2002-11-18 10:28 51°26.038 2°48.491 1.6 207 10.4 101350 72
2002-11-18 10:29 51°26.041 2°48.483 1.6 187 10.4 101350 72
2002-11-18 10:30 51°26.046 2°48.475 1.7 214 10.4 101340 72
2002-11-18 10:31 51°26.057 2°48.471 1.9 219 10.5 101350 72
2002-11-18 10:32 51°26.07 2°48.473 2.7 228 10.5 101350 72
2002-11-18 10:33 51°26.084 2°48.48 2.4 235 10.5 101350 73
2002-11-18 10:34 51°26.096 2°48.487 2.3 221 10.5 101350 72
2002-11-18 10:35 51°26.1 2°48.49 2.2 206 10.5 101350 72
2002-11-18 10:36 51°26.089 2°48.498 1.9 165 10.5 101350 71
2002-11-18 10:37 51°26.078 2°48.525 1.9 150 10.4 101350 72
2002-11-18 10:38 51°26.067 2°48.561 1.6 159 10.5 101340 72
2002-11-18 10:39 51°26.056 2°48.588 1.9 201 10.5 101350 71
2002-11-18 10:40 51°26.049 2°48.605 4.1 264 10.5 101350 72
2002-11-18 10:41 51°26.047 2°48.612 3.7 298 10.6 101360 75
2002-11-18 10:42 51°26.046 2°48.616 3.6 256 10.6 101350 78
2002-11-18 10:43 51°26.046 2°48.621 6.8 269 10.4 101360 79
2002-11-18 10:44 51°26.05 2°48.623 5.9 266 10.3 101350 81
2002-11-18 10:45 51°26.058 2°48.624 6.2 285 10.1 101350 82
2002-11-18 10:46 51°26.064 2°48.621 6.9 283 10.1 101350 83
2002-11-18 10:47 51°26.068 2°48.614 7.8 277 10 101350 84
2002-11-18 10:48 51°26.055 2°48.581 8.3 264 10 101340 84
2002-11-18 10:49 51°26.009 2°48.488 6.9 268 9.9 101330 84
2002-11-18 10:50 51°25.992 2°48.464 5.7 245 9.9 101340 84
2002-11-18 10:51 51°25.985 2°48.478 5.2 239 9.9 101340 84
2002-11-18 10:52 51°25.981 2°48.497 5.2 249 9.9 101340 84
2002-11-18 10:53 51°25.984 2°48.515 4.6 259 9.9 101340 84
2002-11-18 10:54 51°25.993 2°48.533 5.5 276 10 101340 84
2002-11-18 10:55 51°26.007 2°48.554 4.6 282 9.9 101340 84
2002-11-18 10:56 51°26.022 2°48.571 3.3 280 9.9 101350 83
2002-11-18 10:57 51°26.032 2°48.586 3.9 250 9.9 101340 82
2002-11-18 10:58 51°26.023 2°48.581 4 262 10 101340 82
2002-11-18 10:59 51°26.014 2°48.533 5.2 273 10.1 101340 81
2002-11-18 11:00 51°26.026 2°48.521 3.5 300 10 101340 80
2002-11-18 11:01 51°26.036 2°48.514 4.1 277 10.1 101340 79
2002-11-18 11:02 51°26.035 2°48.513 2.9 254 10.1 101340 78
2002-11-18 11:03 51°26.025 2°48.52 3.6 244 10.1 101340 77
2002-11-18 11:04 51°26.01 2°48.526 3.6 257 10.2 101330 77
2002-11-18 11:05 51°25.994 2°48.536 4.6 238 10.3 101320 78
2002-11-18 11:06 51°25.983 2°48.543 6.5 246 10.4 101320 80
2002-11-18 11:07 51°25.976 2°48.561 6.4 237 10.3 101320 81
2002-11-18 11:08 51°25.971 2°48.585 6 236 10 101320 83
2002-11-18 11:09 51°25.968 2°48.604 5 251 9.9 101320 84
2002-11-18 11:10 51°25.968 2°48.62 4.4 242 9.8 101320 85
2002-11-18 11:11 51°25.965 2°48.636 4.3 241 9.8 101330 86
2002-11-18 11:12 51°25.948 2°48.622 5.4 276 9.7 101320 86
2002-11-18 11:13 51°25.971 2°48.535 5.4 278 9.7 101330 87
2002-11-18 11:14 51°25.984 2°48.455 4.5 291 9.7 101310 87
2002-11-18 11:15 51°26.012 2°48.442 2.8 303 9.8 101320 87
2002-11-18 11:16 51°26.034 2°48.437 3.7 276 9.8 101330 88
2002-11-18 11:17 51°26.046 2°48.44 4.2 252 9.8 101320 88
2002-11-18 11:18 51°26.052 2°48.446 3.9 247 9.8 101320 88
2002-11-18 11:19 51°26.053 2°48.459 3.7 226 9.8 101320 88
2002-11-18 11:20 51°26.051 2°48.488 3.5 212 9.9 101330 88
2002-11-18 11:21 51°26.046 2°48.52 3.7 231 9.8 101320 88
2002-11-18 11:22 51°26.042 2°48.543 3.8 233 9.9 101320 88
2002-11-18 11:23 51°26.036 2°48.566 4.4 231 9.9 101320 87
2002-11-18 11:24 51°26.024 2°48.595 6.2 236 9.9 101320 87
2002-11-18 11:25 51°25.958 2°48.565 9.3 245 9.8 101320 87
2002-11-18 11:26 51°25.812 2°48.431 11.6 239 9.8 101300 88
2002-11-18 11:27 51°25.631 2°48.28 11.8 237 9.7 101300 88
2002-11-18 11:28 51°25.448 2°48.128 12.9 243 9.7 101290 89
2002-11-18 11:29 51°25.262 2°47.974 13.2 239 9.7 101290 89
2002-11-18 11:30 51°25.077 2°47.823 12.5 242 9.6 101290 89
2002-11-18 11:31 51°24.894 2°47.671 12.6 242 9.5 101280 89
2002-11-18 11:32 51°24.709 2°47.518 11.1 238 9.5 101290 90
2002-11-18 11:33 51°24.525 2°47.367 11.3 236 9.5 101290 90
2002-11-18 11:34 51°24.34 2°47.217 11.6 234 9.4 101290 90
2002-11-18 11:35 51°24.156 2°47.063 11.4 239 9.4 101290 90
2002-11-18 11:36 51°23.973 2°46.909 11.9 239 9.5 101300 90
2002-11-18 11:37 51°23.788 2°46.755 10.9 233 9.5 101310 90
2002-11-18 11:38 51°23.603 2°46.601 12 240 9.5 101290 90
2002-11-18 11:39 51°23.418 2°46.444 11.5 236 9.4 101300 90
2002-11-18 11:40 51°23.234 2°46.289 11.9 236 9.4 101300 90
2002-11-18 11:41 51°23.049 2°46.133 11.1 236 9.4 101300 91
2002-11-18 11:42 51°22.862 2°45.976 11.3 237 9.4 101290 91
2002-11-18 11:43 51°22.676 2°45.821 11.3 238 9.4 101300 91
2002-11-18 11:44 51°22.49 2°45.665 11.2 239 9.4 101300 91
2002-11-18 11:45 51°22.303 2°45.508 12.2 238 9.3 101300 91
2002-11-18 11:46 51°22.118 2°45.353 12.5 241 9.3 101290 91
2002-11-18 11:47 51°21.931 2°45.198 12.8 243 9.1 101300 91
2002-11-18 11:48 51°21.745 2°45.044 13.5 240 9.1 101290 91
2002-11-18 11:49 51°21.557 2°44.889 12.1 240 9 101290 91
2002-11-18 11:50 51°21.367 2°44.74 11.8 241 8.9 101290 91
2002-11-18 11:51 51°21.178 2°44.591 11.3 238 8.8 101290 91
2002-11-18 11:52 51°20.989 2°44.444 11.3 241 8.7 101290 91
2002-11-18 11:53 51°20.799 2°44.294 12 241 8.6 101300 91
2002-11-18 11:54 51°20.61 2°44.144 11.4 238 8.6 101300 91
2002-11-18 11:55 51°20.417 2°44.001 12.2 238 8.5 101300 92
2002-11-18 11:56 51°20.224 2°43.857 12.3 240 8.5 101290 92
2002-11-18 11:57 51°20.031 2°43.714 11.3 240 8.5 101310 92
2002-11-18 11:58 51°19.839 2°43.569 11.3 241 8.4 101300 92
2002-11-18 11:59 51°19.647 2°43.422 11.4 240 8.4 101310 92
2002-11-18 12:00 51°19.455 2°43.276 11.3 238 8.4 101300 92
2002-11-18 12:01 51°19.264 2°43.128 10.6 237 8.3 101300 92
2002-11-18 12:02 51°19.072 2°42.983 11 239 8.3 101310 92
2002-11-18 12:03 51°18.881 2°42.839 12 237 8.4 101300 92
2002-11-18 12:04 51°18.689 2°42.694 11.5 235 8.3 101310 92
2002-11-18 12:05 51°18.498 2°42.55 11.7 240 8.3 101310 92
2002-11-18 12:06 51°18.312 2°42.388 11.8 237 8.3 101320 92
2002-11-18 12:07 51°18.139 2°42.196 11.6 243 8.3 101310 92
2002-11-18 12:08 51°17.965 2°42.004 12.7 237 8.3 101310 93
2002-11-18 12:09 51°17.79 2°41.813 11.5 240 8.3 101320 93
2002-11-18 12:10 51°17.613 2°41.62 12 239 8.2 101310 93
2002-11-18 12:11 51°17.437 2°41.427 12 242 8.3 101310 93
2002-11-18 12:12 51°17.258 2°41.239 12.3 241 8.2 101310 93
2002-11-18 12:13 51°17.067 2°41.079 12 234 8.2 101320 93
2002-11-18 12:14 51°16.876 2°40.925 10.1 236 8.2 101320 93
2002-11-18 12:15 51°16.68 2°40.783 11.8 236 8.2 101310 93
2002-11-18 12:16 51°16.485 2°40.641 10.5 238 8.1 101310 93
2002-11-18 12:17 51°16.298 2°40.503 11.8 236 8.1 101310 93
2002-11-18 12:18 51°16.1 2°40.371 11.4 238 8.1 101320 93
2002-11-18 12:19 51°15.903 2°40.239 10.5 242 8.2 101320 93
2002-11-18 12:20 51°15.706 2°40.106 10 239 8.2 101310 93
2002-11-18 12:21 51°15.508 2°39.978 12.1 239 8.2 101310 93
2002-11-18 12:22 51°15.312 2°39.843 12.1 239 8.2 101320 93
2002-11-18 12:23 51°15.115 2°39.709 9.9 240 8.1 101320 93
2002-11-18 12:24 51°14.918 2°39.58 11 244 8.2 101320 93
2002-11-18 12:25 51°14.72 2°39.448 10.7 244 8.1 101310 93
2002-11-18 12:26 51°14.522 2°39.317 10.7 244 8 101310 93
2002-11-18 12:27 51°14.322 2°39.187 10.9 247 8.1 101310 93
2002-11-18 12:28 51°14.122 2°39.054 12.2 247 8 101310 93
2002-11-18 12:29 51°13.922 2°38.915 11 250 8 101320 93
2002-11-18 12:30 51°13.718 2°38.775 10.7 248 8 101310 93
2002-11-18 12:31 51°13.524 2°38.617 10.1 246 8 101310 93
2002-11-18 12:32 51°13.328 2°38.461 10.8 246 8 101310 93
2002-11-18 12:33 51°13.133 2°38.306 11.1 250 8 101310 93
2002-11-18 12:34 51°12.939 2°38.15 12.3 245 8 101310 93
2002-11-18 12:35 51°12.745 2°37.991 11.7 245 7.9 101310 93
2002-11-18 12:36 51°12.551 2°37.833 10.8 254 7.9 101300 93
2002-11-18 12:37 51°12.354 2°37.671 11.5 252 7.9 101310 93
2002-11-18 12:38 51°12.161 2°37.517 11.9 247 7.9 101310 93
2002-11-18 12:39 51°11.966 2°37.359 10.4 249 7.9 101310 93
2002-11-18 12:40 51°11.771 2°37.201 9.7 250 8 101310 93
2002-11-18 12:41 51°11.577 2°37.042 10.8 253 7.9 101320 93
2002-11-18 12:42 51°11.384 2°36.88 11.5 245 7.9 101310 93
2002-11-18 12:43 51°11.169 2°36.792 10.9 243 7.8 101320 93
2002-11-18 12:44 51°10.953 2°36.751 10 242 7.8 101320 93
2002-11-18 12:45 51°10.732 2°36.727 10.9 240 7.8 101320 93
2002-11-18 12:46 51°10.514 2°36.726 10.2 239 7.7 101330 93
2002-11-18 12:47 51°10.293 2°36.736 10.5 244 7.7 101310 93
2002-11-18 12:48 51°10.083 2°36.755 9.7 244 7.7 101320 93
2002-11-18 12:49 51°9.882 2°36.807 9.8 240 7.7 101330 93
2002-11-18 12:50 51°9.678 2°36.889 10.2 236 7.7 101320 93
2002-11-18 12:51 51°9.488 2°36.974 9.2 238 7.7 101320 93
2002-11-18 12:52 51°9.352 2°37.024 6.2 252 7.8 101330 93
2002-11-18 12:53 51°9.264 2°37.023 6 261 7.8 101330 93
2002-11-18 12:54 51°9.204 2°37.054 5.3 243 7.9 101330 93
2002-11-18 12:55 51°9.159 2°37.1 4.2 233 7.8 101330 93
2002-11-18 12:56 51°9.141 2°37.134 3.3 255 7.8 101340 93
2002-11-18 12:57 51°9.141 2°37.155 4 258 7.9 101330 93
2002-11-18 12:58 51°9.142 2°37.169 4.4 280 7.8 101330 93
2002-11-18 12:59 51°9.144 2°37.179 4.1 288 7.8 101340 93
2002-11-18 13:00 51°9.15 2°37.186 3 301 7.8 101330 93
2002-11-18 13:01 51°9.154 2°37.192 2.3 303 7.9 101340 93
2002-11-18 13:02 51°9.16 2°37.195 3.2 322 7.9 101340 92
2002-11-18 13:03 51°9.167 2°37.198 3.3 307 7.9 101340 92
2002-11-18 13:04 51°9.171 2°37.2 3.3 306 7.9 101340 92
2002-11-18 13:05 51°9.173 2°37.201 4.4 282 7.9 101340 92
2002-11-18 13:06 51°9.172 2°37.2 3.5 282 7.9 101330 92
2002-11-18 13:07 51°9.168 2°37.198 3.4 274 7.9 101330 92
2002-11-18 13:08 51°9.162 2°37.198 3.6 269 7.9 101330 92
2002-11-18 13:09 51°9.154 2°37.196 3.7 270 7.9 101330 92
2002-11-18 13:10 51°9.146 2°37.19 3.8 276 7.9 101320 92
2002-11-18 13:11 51°9.138 2°37.18 3.5 287 7.9 101330 92
2002-11-18 13:12 51°9.132 2°37.167 3.9 294 7.9 101330 92
2002-11-18 13:13 51°9.13 2°37.154 3.7 299 7.8 101330 92
2002-11-18 13:14 51°9.131 2°37.142 3.4 306 7.8 101330 92
2002-11-18 13:15 51°9.133 2°37.131 2.1 309 7.8 101330 92
2002-11-18 13:16 51°9.136 2°37.122 2.5 314 7.8 101330 92
2002-11-18 13:17 51°9.139 2°37.116 3.3 301 7.8 101330 92
2002-11-18 13:18 51°9.144 2°37.112 2.6 304 7.7 101330 92
2002-11-18 13:19 51°9.15 2°37.112 2.8 296 7.7 101330 92
2002-11-18 13:20 51°9.158 2°37.113 1.7 317 7.7 101330 92
2002-11-18 13:21 51°9.165 2°37.116 2.1 296 7.7 101330 92
2002-11-18 13:22 51°9.172 2°37.119 2.8 304 7.6 101330 92
2002-11-18 13:23 51°9.179 2°37.121 3.1 302 7.6 101330 92
2002-11-18 13:24 51°9.185 2°37.125 4.5 299 7.7 101330 92
2002-11-18 13:25 51°9.192 2°37.13 3.4 290 7.7 101330 92
2002-11-18 13:26 51°9.199 2°37.135 2.8 294 7.7 101330 92
2002-11-18 13:27 51°9.207 2°37.14 3.1 296 7.7 101320 92
2002-11-18 13:28 51°9.213 2°37.146 3.2 301 7.7 101330 92
2002-11-18 13:29 51°9.218 2°37.147 4 300 7.7 101320 92
2002-11-18 13:30 51°9.216 2°37.142 3.6 292 7.7 101330 92
2002-11-18 13:31 51°9.208 2°37.137 4.2 257 7.7 101320 92
2002-11-18 13:32 51°9.194 2°37.136 4.2 263 7.7 101320 92
2002-11-18 13:33 51°9.18 2°37.132 4.2 263 7.7 101330 92
2002-11-18 13:34 51°9.168 2°37.128 4.3 267 7.7 101330 92
2002-11-18 13:35 51°9.156 2°37.128 4.7 248 7.7 101320 92
2002-11-18 13:36 51°9.144 2°37.13 4.4 246 7.7 101320 92
2002-11-18 13:37 51°9.133 2°37.132 4.7 250 7.7 101320 92
2002-11-18 13:38 51°9.124 2°37.133 3.8 260 7.6 101320 92
2002-11-18 13:39 51°9.12 2°37.133 4.3 259 7.6 101320 92
2002-11-18 13:40 51°9.119 2°37.133 3.9 265 7.6 101320 92
2002-11-18 13:41 51°9.121 2°37.132 3.2 278 7.6 101330 92
2002-11-18 13:42 51°9.126 2°37.13 3.8 297 7.6 101330 92
2002-11-18 13:43 51°9.132 2°37.128 1.4 321 7.6 101340 92
2002-11-18 13:44 51°9.139 2°37.126 1.1 324 7.6 101330 92
2002-11-18 13:45 51°9.147 2°37.125 0.6 326 7.6 101340 92
2002-11-18 13:46 51°9.155 2°37.125 0.6 320 7.6 101340 92
2002-11-18 13:47 51°9.163 2°37.128 0.4 336 7.6 101330 92
2002-11-18 13:48 51°9.172 2°37.131 1.3 312 7.6 101340 92
2002-11-18 13:49 51°9.181 2°37.136 0.5 339 7.7 101330 92
2002-11-18 13:50 51°9.189 2°37.141 0.4 331 7.6 101330 92
2002-11-18 13:51 51°9.198 2°37.147 1 333 7.6 101330 91
2002-11-18 13:52 51°9.207 2°37.143 1.1 316 7.7 101330 92
2002-11-18 13:53 51°9.195 2°37.112 4.4 256 7.8 101330 92
2002-11-18 13:54 51°9.176 2°37.1 4.3 253 7.8 101320 92
2002-11-18 13:55 51°9.162 2°37.096 3.5 244 7.8 101320 91
2002-11-18 13:56 51°9.151 2°37.094 1.9 245 7.8 101320 91
2002-11-18 13:57 51°9.141 2°37.092 3.9 252 7.8 101320 91
2002-11-18 13:58 51°9.134 2°37.089 3.5 251 7.9 101320 91
2002-11-18 13:59 51°9.129 2°37.084 3.3 279 7.9 101320 91
2002-11-18 14:00 51°9.13 2°37.08 3.7 299 7.9 101320 91
2002-11-18 14:01 51°9.135 2°37.077 3.7 298 7.9 101320 91
2002-11-18 14:02 51°9.141 2°37.072 3.4 294 7.9 101330 91
2002-11-18 14:03 51°9.148 2°37.07 2.9 307 7.9 101330 91
2002-11-18 14:04 51°9.154 2°37.066 2.8 303 7.9 101330 91
2002-11-18 14:05 51°9.162 2°37.079 0.2 342 7.9 101330 91
2002-11-18 14:06 51°9.168 2°37.103 0.4 332 7.9 101320 91
2002-11-18 14:07 51°9.173 2°37.122 0.8 345 7.9 101330 91
2002-11-18 14:08 51°9.175 2°37.146 0.9 342 7.9 101330 91
2002-11-18 14:09 51°9.18 2°37.15 0.6 318 7.9 101330 91
2002-11-18 14:10 51°9.229 2°37.063 0.3 342 8 101320 91
2002-11-18 14:11 51°9.31 2°37.173 5.1 195 7.9 101320 91
2002-11-18 14:12 51°9.43 2°37.451 9.4 205 8 101310 91
2002-11-18 14:13 51°9.545 2°37.778 9.4 209 7.9 101310 91
2002-11-18 14:14 51°9.644 2°38.119 9.6 213 7.8 101310 91
2002-11-18 14:15 51°9.737 2°38.467 9.5 202 7.8 101310 91
2002-11-18 14:16 51°9.83 2°38.821 9.5 201 7.7 101310 91
2002-11-18 14:17 51°9.92 2°39.164 8 205 7.6 101310 91
2002-11-18 14:18 51°10.011 2°39.512 9.5 207 7.6 101320 91
2002-11-18 14:19 51°10.102 2°39.859 10 210 7.6 101320 91
2002-11-18 14:20 51°10.193 2°40.206 9.9 206 7.6 101310 91
2002-11-18 14:21 51°10.281 2°40.554 10.1 208 7.5 101320 91
2002-11-18 14:22 51°10.371 2°40.907 9.7 207 7.4 101320 91
2002-11-18 14:23 51°10.46 2°41.246 8.5 204 7.4 101330 91
2002-11-18 14:24 51°10.55 2°41.59 7.5 203 7.3 101330 91
2002-11-18 14:25 51°10.641 2°41.94 8.2 207 7.3 101320 92
2002-11-18 14:26 51°10.73 2°42.278 7.8 207 7.3 101320 91
2002-11-18 14:27 51°10.82 2°42.621 7.7 209 7.3 101320 91
2002-11-18 14:28 51°10.911 2°42.969 8.7 207 7.3 101320 92
2002-11-18 14:29 51°11.001 2°43.319 10 211 7.3 101330 92
2002-11-18 14:30 51°11.091 2°43.67 9.5 206 7.3 101330 92
2002-11-18 14:31 51°11.182 2°44.017 8.8 208 7.3 101320 92
2002-11-18 14:32 51°11.273 2°44.363 9.2 207 7.2 101330 92
2002-11-18 14:33 51°11.364 2°44.715 8.5 201 7.2 101330 92
2002-11-18 14:34 51°11.454 2°45.062 8.6 208 7.2 101330 92
2002-11-18 14:35 51°11.544 2°45.407 9.6 209 7.2 101330 92
2002-11-18 14:36 51°11.634 2°45.753 8.1 208 7.2 101330 92
2002-11-18 14:37 51°11.73 2°46.097 8.3 205 7.2 101330 92
2002-11-18 14:38 51°11.828 2°46.44 8.3 212 7.1 101340 92
2002-11-18 14:39 51°11.927 2°46.782 7.6 207 7.1 101340 92
2002-11-18 14:40 51°12.027 2°47.122 8.3 206 7.1 101340 92
2002-11-18 14:41 51°12.136 2°47.448 7.4 200 7.1 101330 92
2002-11-18 14:42 51°12.246 2°47.78 9.1 209 7.1 101340 92
2002-11-18 14:43 51°12.356 2°48.111 7.4 213 7.1 101330 92
2002-11-18 14:44 51°12.464 2°48.447 7.5 203 7.1 101330 92
2002-11-18 14:45 51°12.569 2°48.782 8.3 208 7.1 101340 92
2002-11-18 14:46 51°12.677 2°49.116 9.2 212 7 101340 92
2002-11-18 14:47 51°12.782 2°49.452 6.8 200 7 101330 92
2002-11-18 14:48 51°12.888 2°49.788 6.5 205 6.9 101340 92
2002-11-18 14:49 51°13.001 2°50.116 8.2 211 7 101340 92
2002-11-18 14:50 51°13.114 2°50.443 7.7 208 7 101330 92
2002-11-18 14:51 51°13.226 2°50.771 7.9 209 7 101340 92
2002-11-18 14:52 51°13.339 2°51.097 6.6 214 6.9 101340 92
2002-11-18 14:53 51°13.452 2°51.424 7.5 211 6.9 101340 92
2002-11-18 14:54 51°13.564 2°51.75 6.4 207 6.8 101350 92
2002-11-18 14:55 51°13.675 2°52.077 6.9 210 6.7 101340 92
2002-11-18 14:56 51°13.786 2°52.404 5.9 206 6.7 101340 92
2002-11-18 14:57 51°13.897 2°52.732 6.2 207 6.7 101340 93
2002-11-18 14:58 51°14.008 2°53.058 7.3 212 6.8 101350 92
2002-11-18 14:59 51°14.118 2°53.384 7.6 218 6.8 101340 93
2002-11-18 15:00 51°14.226 2°53.705 6 208 6.9 101340 93
2002-11-18 15:01 51°14.324 2°54.003 7 203 6.9 101350 93
2002-11-18 15:02 51°14.396 2°54.305 7.4 203 6.9 101340 93
2002-11-18 15:03 51°14.421 2°54.62 8.2 215 6.9 101340 93
2002-11-18 15:04 51°14.39 2°54.931 9 222 6.9 101340 93
2002-11-18 15:05 51°14.301 2°55.183 6.4 315 6.8 101340 93
2002-11-18 15:06 51°14.218 2°55.324 4.8 226 6.8 101340 93
2002-11-18 15:07 51°14.138 2°55.402 6 233 6.9 101350 93
2002-11-18 15:08 51°14.063 2°55.455 5.1 229 6.9 101350 93
2002-11-18 15:09 51°13.989 2°55.508 4.1 219 6.8 101350 93
2002-11-18 15:10 51°13.915 2°55.563 5.1 225 6.8 101350 93
2002-11-18 15:11 51°13.843 2°55.62 4.4 228 6.8 101360 93
2002-11-18 15:12 51°13.782 2°55.675 5.1 130 6.9 101350 93
2002-11-18 15:13 51°13.737 2°55.734 3.9 199 6.8 101360 93
2002-11-18 15:14 51°13.706 2°55.797 3.7 207 6.8 101360 93
2002-11-18 15:15 51°13.683 2°55.863 2.4 198 6.8 101360 93
2002-11-18 15:16 51°13.671 2°55.924 3.1 224 6.9 101360 93
2002-11-18 15:17 51°13.667 2°55.946 2.8 217 6.9 101350 93
2002-11-18 15:18 51°13.666 2°55.95 3.1 206 6.9 101360 93
2002-11-18 15:19 51°13.666 2°55.953 2.4 194 6.9 101360 93
2002-11-18 15:20 51°13.668 2°55.954 1.7 206 6.8 101360 93